リヤド の空港の天気 - METARとTAF

キング・ハーリド国際空港(リヤド) ( OERK / RUH ) - サウジアラビア リヤド
飛行場実況気象(Metar)
観測時間08/25 22:00 AST (08/25 19:00 UTC)
風向・風速東北東 3m/s
視程10km以上
天気現象
なし
気温36℃
湿度13%
気圧1009hPa
METAROERK 251900Z 06006KT CAVOK 36/03 Q1009 NOSIG
過去の天気等 Google飛行場航空写真 Wunderground天気予報

過去48時間のMETAR

飛行場予報(TAF)
発表時間: 8/25 20:00 AST (8/25 17:00 UTC)
予報対象時間: 25日21時 AST ~ 27日3時 AST
風向・風速不定 2m/s
視程10km以上
なし
26日1時 AST ~ 26日3時 AST に徐々に
風向・風速西南西 5m/s
TAF OERK 251700Z 2518/2624 VRB03KT CAVOK
BECMG 2522/2524 24010KT